Time;durP1;ratioP1;P1;durP2;ratioP2;P2;SDS_P1;SDS_P2;PMS_P1;PMS_P2;Temp;Humidity;BMP_temperature;BMP_pressure;BME280_temperature;BME280_humidity;BME280_pressure;Samples;Min_cycle;Max_cycle;Signal;HPM_P1;HPM_P2
2022/10/19 00:01:43;;;;;;;0.30;0.30;;;;;;;13.50;83.91;97348.94;105156;1290;22551;-77
2022/10/19 00:04:14;;;;;;;0.70;0.70;;;;;;;13.49;83.88;97348.64;105136;1296;22550;-77
2022/10/19 00:06:46;;;;;;;1.70;0.50;;;;;;;13.47;84.06;97345.56;105138;1298;22471;-77
2022/10/19 00:09:19;;;;;;;0.70;0.60;;;;;;;13.46;83.95;97344.45;105196;1303;22471;-76
2022/10/19 00:11:57;;;;;;;1.20;0.60;;;;;;;13.40;83.89;97354.09;105161;1293;24272;-77
2022/10/19 00:14:28;;;;;;;0.60;0.50;;;;;;;13.35;83.91;97356.57;105162;1287;22484;-77
2022/10/19 00:17:02;;;;;;;1.00;0.60;;;;;;;13.34;84.19;97354.59;105151;1295;22466;-77
2022/10/19 00:19:33;;;;;;;1.00;0.50;;;;;;;13.32;83.92;97353.66;105177;1281;22478;-76
2022/10/19 00:22:04;;;;;;;0.50;0.40;;;;;;;13.29;83.93;97355.34;105175;1303;25213;-77
2022/10/19 00:24:35;;;;;;;1.10;0.60;;;;;;;13.29;83.87;97356.40;105174;1280;22732;-76
2022/10/19 00:27:06;;;;;;;1.10;0.60;;;;;;;13.31;84.05;97352.98;105126;1303;24256;-77
2022/10/19 00:29:38;;;;;;;1.00;0.90;;;;;;;13.26;84.02;97354.04;105174;1295;22578;-77
2022/10/19 00:32:09;;;;;;;0.80;0.70;;;;;;;13.23;84.29;97351.34;105134;1294;22598;-77
2022/10/19 00:34:40;;;;;;;1.80;0.80;;;;;;;13.23;84.40;97354.10;105200;1291;22459;-77
2022/10/19 00:37:11;;;;;;;2.10;1.40;;;;;;;13.15;84.25;97354.29;105109;1303;22467;-77
2022/10/19 00:39:42;;;;;;;1.00;0.70;;;;;;;13.11;84.45;97356.23;105140;1306;22524;-77
2022/10/19 00:42:14;;;;;;;1.50;1.20;;;;;;;13.05;84.58;97351.45;105148;1298;24322;-76
2022/10/19 00:45:11;;;;;;;1.30;1.20;;;;;;;13.05;84.81;97353.21;105133;1297;22484;-77
2022/10/19 00:47:43;;;;;;;2.00;1.60;;;;;;;12.96;84.79;97352.37;105081;1284;24886;-77
2022/10/19 00:50:16;;;;;;;2.60;1.80;;;;;;;12.83;85.10;97349.13;105115;1304;22486;-77
2022/10/19 00:52:47;;;;;;;1.30;1.20;;;;;;;12.71;85.74;97352.13;105098;1287;22601;-76
2022/10/19 00:55:19;;;;;;;1.00;0.90;;;;;;;12.61;86.15;97347.38;105129;1291;22470;-76
2022/10/19 00:57:50;;;;;;;2.60;1.20;;;;;;;12.52;86.49;97347.84;105140;1303;23436;-77
2022/10/19 01:00:22;;;;;;;2.90;1.40;;;;;;;12.46;86.96;97344.56;105210;1303;24387;-77
2022/10/19 01:02:53;;;;;;;2.40;1.30;;;;;;;12.45;87.21;97343.08;105189;1303;22594;-77
2022/10/19 01:05:25;;;;;;;1.90;1.60;;;;;;;12.44;87.46;97337.50;105178;1288;22449;-77
2022/10/19 01:07:57;;;;;;;2.30;1.70;;;;;;;12.42;87.73;97338.48;105151;1303;32254;-77
2022/10/19 01:10:37;;;;;;;3.20;1.70;;;;;;;12.39;87.93;97331.52;105119;1282;25241;-76
2022/10/19 01:13:23;;;;;;;2.00;1.80;;;;;;;12.40;88.16;97328.80;105172;1281;26691;-76
2022/10/19 01:16:02;;;;;;;3.60;1.90;;;;;;;12.42;88.39;97326.08;105119;1303;24254;-76
2022/10/19 01:18:43;;;;;;;2.10;1.90;;;;;;;12.47;88.52;97325.20;105165;1288;22524;-77
2022/10/19 01:21:25;;;;;;;4.80;3.30;;;;;;;12.50;88.70;97319.44;105206;1303;22470;-76
2022/10/19 01:24:34;;;;;;;3.50;3.20;;;;;;;12.45;88.57;97317.02;105222;1288;25250;-76
2022/10/19 01:27:28;;;;;;;4.30;3.90;;;;;;;12.46;89.19;97316.80;105128;1289;30017;-76
2022/10/19 01:30:09;;;;;;;4.50;4.10;;;;;;;12.39;89.27;97322.27;105118;1303;22542;-77
2022/10/19 01:33:03;;;;;;;6.10;4.40;;;;;;;12.35;89.52;97327.21;105040;1293;222924;-76
2022/10/19 01:35:40;;;;;;;4.60;4.20;;;;;;;12.42;89.75;97331.51;105150;1302;22478;-76
2022/10/19 01:38:22;;;;;;;5.90;4.40;;;;;;;12.44;89.73;97324.20;105179;1278;25381;-76
2022/10/19 01:41:01;;;;;;;4.10;3.70;;;;;;;12.42;89.82;97317.09;105160;1306;22527;-76
2022/10/19 01:43:41;;;;;;;4.80;4.20;;;;;;;12.41;89.78;97322.36;105130;1306;22482;-77
2022/10/19 01:46:18;;;;;;;6.00;5.00;;;;;;;12.24;90.08;97321.45;105124;1304;23210;-77
2022/10/19 01:48:58;;;;;;;4.10;3.60;;;;;;;12.20;90.34;97316.16;105204;1303;22464;-77
2022/10/19 01:51:34;;;;;;;6.10;4.40;;;;;;;12.10;90.76;97317.73;105163;1298;22478;-77
2022/10/19 01:54:11;;;;;;;5.60;4.90;;;;;;;11.99;90.88;97322.59;105177;1295;22481;-77
2022/10/19 01:56:46;;;;;;;5.20;4.70;;;;;;;11.98;90.81;97320.70;105133;1298;22487;-77
2022/10/19 01:59:21;;;;;;;7.30;5.00;;;;;;;11.98;91.00;97325.46;105108;1298;22616;-77
2022/10/19 02:01:53;;;;;;;6.10;5.40;;;;;;;11.88;91.35;97325.16;105127;1306;25242;-77
2022/10/19 02:04:26;;;;;;;6.50;5.90;;;;;;;11.81;91.62;97320.49;105140;1304;22746;-76
2022/10/19 02:06:57;;;;;;;8.00;6.80;;;;;;;11.81;91.74;97320.23;105117;1301;26577;-77
2022/10/19 02:09:29;;;;;;;6.00;5.30;;;;;;;11.75;92.31;97319.15;105199;1301;22472;-77
2022/10/19 02:12:07;;;;;;;6.90;6.20;;;;;;;11.69;93.02;97315.13;105169;1303;22480;-77
2022/10/19 02:14:44;;;;;;;6.50;5.90;;;;;;;11.61;93.47;97319.10;105143;1295;24353;-76
2022/10/19 02:17:17;;;;;;;7.00;6.30;;;;;;;11.58;93.61;97322.09;105137;1282;22477;-77
2022/10/19 02:19:50;;;;;;;6.60;5.20;;;;;;;11.57;94.06;97319.70;105187;1288;22464;-76
2022/10/19 02:22:23;;;;;;;5.80;5.30;;;;;;;11.57;93.85;97316.36;105180;1295;23832;-77
2022/10/19 02:24:54;;;;;;;6.70;6.10;;;;;;;11.62;93.84;97309.45;105178;1303;22492;-77
2022/10/19 02:27:27;;;;;;;6.60;4.90;;;;;;;11.60;94.07;97309.98;105177;1303;24453;-77
2022/10/19 02:29:58;;;;;;;7.60;6.30;;;;;;;11.56;94.28;97307.76;105184;1303;22470;-76
2022/10/19 02:32:30;;;;;;;9.80;8.90;;;;;;;11.52;94.56;97306.99;105168;1303;22554;-77
2022/10/19 02:35:02;;;;;;;10.40;9.40;;;;;;;11.47;94.78;97307.06;105198;1303;24250;-76
2022/10/19 02:37:33;;;;;;;11.80;10.60;;;;;;;11.42;95.17;97307.65;105129;1300;22596;-77
2022/10/19 02:40:05;;;;;;;12.30;11.10;;;;;;;11.38;95.35;97303.87;105172;1288;22463;-76
2022/10/19 02:42:40;;;;;;;12.00;10.80;;;;;;;11.36;95.52;97302.44;105183;1300;22483;-77
2022/10/19 02:45:17;;;;;;;11.30;10.20;;;;;;;11.36;95.64;97296.17;105184;1301;25917;-77
2022/10/19 02:47:52;;;;;;;10.10;8.90;;;;;;;11.36;95.68;97295.91;105125;1299;22618;-77
2022/10/19 02:50:24;;;;;;;7.40;6.50;;;;;;;11.35;95.80;97294.64;105185;1303;25385;-77
2022/10/19 02:52:55;;;;;;;7.70;6.90;;;;;;;11.37;95.69;97286.24;105186;1295;22502;-77
2022/10/19 02:55:26;;;;;;;8.40;7.50;;;;;;;11.41;95.60;97287.59;105179;1296;22459;-77
2022/10/19 02:57:57;;;;;;;6.60;5.90;;;;;;;11.43;95.65;97288.59;105178;1303;34156;-77
2022/10/19 03:00:28;;;;;;;7.80;7.00;;;;;;;11.46;95.61;97295.59;105191;1295;22493;-77
2022/10/19 03:03:01;;;;;;;8.60;7.80;;;;;;;11.50;95.57;97294.99;105218;1281;22492;-77
2022/10/19 03:05:33;;;;;;;7.40;6.20;;;;;;;11.58;95.61;97295.42;105158;1295;23989;-77
2022/10/19 03:08:04;;;;;;;6.70;6.10;;;;;;;11.66;95.31;97282.71;105202;1289;22480;-77
2022/10/19 03:10:35;;;;;;;6.60;5.90;;;;;;;11.72;95.18;97282.87;105155;1303;22507;-77
2022/10/19 03:13:10;;;;;;;7.10;6.40;;;;;;;11.78;94.98;97278.51;105196;1295;22459;-77
2022/10/19 03:15:41;;;;;;;7.00;6.30;;;;;;;11.84;94.83;97280.60;105105;1303;22488;-77
2022/10/19 03:18:15;;;;;;;7.40;6.60;;;;;;;11.83;94.48;97272.62;105210;1303;22499;-77
2022/10/19 03:20:46;;;;;;;7.90;7.10;;;;;;;11.79;94.51;97278.20;105168;1302;22530;-77
2022/10/19 03:23:17;;;;;;;8.20;7.30;;;;;;;11.79;94.49;97282.92;105168;1288;22617;-77
2022/10/19 03:25:48;;;;;;;7.30;6.40;;;;;;;11.80;94.57;97279.94;105159;1303;22517;-77
2022/10/19 03:28:19;;;;;;;6.80;6.10;;;;;;;11.80;94.55;97278.77;105180;1294;22484;-77
2022/10/19 03:30:52;;;;;;;6.20;5.60;;;;;;;11.80;94.60;97278.94;105192;1282;22484;-78
2022/10/19 03:33:24;;;;;;;5.70;5.10;;;;;;;11.81;94.61;97276.55;105198;1288;22575;-78
2022/10/19 03:36:16;;;;;;;6.20;5.60;;;;;;;11.76;94.50;97275.52;105128;1303;22511;-78
2022/10/19 03:38:47;;;;;;;6.40;5.80;;;;;;;11.73;94.54;97277.35;105168;1298;22486;-77
2022/10/19 03:41:18;;;;;;;6.30;5.70;;;;;;;11.71;94.71;97277.46;105201;1289;22481;-77
2022/10/19 03:43:50;;;;;;;5.60;5.10;;;;;;;11.73;94.77;97277.92;105186;1302;22459;-77
2022/10/19 03:46:23;;;;;;;6.30;5.70;;;;;;;11.74;94.93;97279.04;105114;1303;23492;-77
2022/10/19 03:48:55;;;;;;;5.00;4.50;;;;;;;11.78;94.99;97274.89;105162;1306;22731;-77
2022/10/19 03:51:28;;;;;;;4.60;4.10;;;;;;;11.80;94.87;97276.80;105179;1304;25246;-77
2022/10/19 03:54:01;;;;;;;4.40;4.00;;;;;;;11.78;94.76;97270.33;105176;1305;23413;-77
2022/10/19 03:56:36;;;;;;;3.50;3.20;;;;;;;11.75;94.86;97272.61;105138;1298;23001;-77
2022/10/19 03:59:08;;;;;;;3.40;3.10;;;;;;;11.76;95.06;97267.45;105138;1288;24261;-77
2022/10/19 04:01:40;;;;;;;2.80;2.60;;;;;;;11.74;95.29;97267.14;105155;1294;22505;-77
2022/10/19 04:04:15;;;;;;;3.80;3.00;;;;;;;11.69;95.41;97267.26;105154;1280;22476;-77
2022/10/19 04:06:48;;;;;;;2.80;2.50;;;;;;;11.68;95.57;97266.55;105124;1288;24317;-77
2022/10/19 04:09:21;;;;;;;3.10;2.80;;;;;;;11.68;95.95;97270.59;105185;1296;22474;-77
2022/10/19 04:11:52;;;;;;;3.70;3.30;;;;;;;11.66;96.35;97262.48;105189;1303;22475;-76
2022/10/19 04:14:24;;;;;;;4.30;3.80;;;;;;;11.62;96.48;97258.02;105172;1298;22475;-76
2022/10/19 04:16:58;;;;;;;5.10;4.60;;;;;;;11.63;96.56;97259.61;105114;1289;22487;-77
2022/10/19 04:19:29;;;;;;;4.50;4.10;;;;;;;11.64;96.39;97260.03;105123;1281;25405;-77
2022/10/19 04:22:00;;;;;;;6.60;5.60;;;;;;;11.66;96.30;97254.94;105144;1304;22488;-77
2022/10/19 04:24:31;;;;;;;7.00;6.00;;;;;;;11.62;96.48;97248.20;105155;1306;25473;-77
2022/10/19 04:27:04;;;;;;;7.20;6.40;;;;;;;11.59;96.33;97241.04;105114;1288;22944;-77
2022/10/19 04:29:36;;;;;;;7.50;6.60;;;;;;;11.58;96.18;97244.45;105145;1305;22478;-77
2022/10/19 04:32:08;;;;;;;8.30;7.00;;;;;;;11.61;96.18;97245.81;105140;1290;22467;-76
2022/10/19 04:34:40;;;;;;;7.70;6.70;;;;;;;11.61;96.13;97240.66;105147;1288;22459;-77
2022/10/19 04:37:11;;;;;;;8.20;7.40;;;;;;;11.59;96.01;97244.02;105105;1303;25371;-77
2022/10/19 04:39:43;;;;;;;8.50;7.40;;;;;;;11.60;95.99;97243.54;105157;1303;24329;-77
2022/10/19 04:42:14;;;;;;;7.90;6.70;;;;;;;11.57;96.51;97243.74;105198;1277;22465;-76
2022/10/19 04:44:45;;;;;;;7.80;6.60;;;;;;;11.52;96.54;97240.19;105207;1298;22484;-76
2022/10/19 04:47:17;;;;;;;9.20;8.00;;;;;;;11.50;96.79;97244.44;105136;1285;23313;-76
2022/10/19 04:49:48;;;;;;;9.10;8.20;;;;;;;11.48;96.90;97239.15;105185;1303;22660;-77
2022/10/19 04:52:20;;;;;;;8.50;7.60;;;;;;;11.45;97.03;97241.27;105155;1287;24299;-76
2022/10/19 04:54:51;;;;;;;8.80;8.00;;;;;;;11.46;96.81;97243.30;105193;1303;23793;-76
2022/10/19 04:57:22;;;;;;;9.50;7.60;;;;;;;11.49;96.70;97243.39;105158;1303;24260;-76
2022/10/19 04:59:53;;;;;;;8.70;6.90;;;;;;;11.50;96.62;97245.55;105190;1295;25465;-76
2022/10/19 05:02:24;;;;;;;8.80;7.80;;;;;;;11.49;97.04;97242.91;105160;1283;22969;-77
2022/10/19 05:04:56;;;;;;;9.80;8.70;;;;;;;11.44;97.11;97248.39;105207;1288;22501;-76
2022/10/19 05:07:27;;;;;;;9.80;8.50;;;;;;;11.44;97.19;97248.87;105152;1296;24711;-76
2022/10/19 05:09:58;;;;;;;8.90;8.00;;;;;;;11.45;97.23;97246.38;105183;1305;25395;-76
2022/10/19 05:12:31;;;;;;;9.40;8.40;;;;;;;11.42;97.16;97247.34;105187;1289;25355;-76
2022/10/19 05:15:02;;;;;;;9.80;8.40;;;;;;;11.43;97.19;97245.53;105180;1306;24305;-76
2022/10/19 05:17:33;;;;;;;9.80;8.80;;;;;;;11.40;97.06;97246.80;105058;1288;22845;-76
2022/10/19 05:20:06;;;;;;;9.00;8.10;;;;;;;11.39;96.96;97252.15;105125;1306;22474;-76
2022/10/19 05:22:39;;;;;;;11.00;9.80;;;;;;;11.38;96.85;97249.13;105197;1302;24562;-76
2022/10/19 05:25:11;;;;;;;10.10;9.00;;;;;;;11.36;96.81;97247.75;105140;1306;22492;-76
2022/10/19 05:27:42;;;;;;;10.50;8.70;;;;;;;11.33;96.98;97256.63;105144;1289;22507;-76
2022/10/19 05:30:13;;;;;;;9.60;8.40;;;;;;;11.30;97.04;97257.80;105194;1296;22525;-77
2022/10/19 05:32:45;;;;;;;11.20;10.10;;;;;;;11.30;97.00;97259.08;105192;1303;22524;-76
2022/10/19 05:35:16;;;;;;;11.20;10.00;;;;;;;11.28;97.04;97260.67;105172;1293;22485;-76
2022/10/19 05:37:53;;;;;;;11.20;9.80;;;;;;;11.26;97.11;97255.30;105111;1303;22470;-76
2022/10/19 05:40:24;;;;;;;12.40;10.60;;;;;;;11.25;97.18;97254.66;105189;1294;22466;-76
2022/10/19 05:42:56;;;;;;;13.90;11.70;;;;;;;11.23;97.08;97247.97;105159;1301;22482;-76
2022/10/19 05:45:27;;;;;;;13.00;11.70;;;;;;;11.23;97.02;97248.13;105187;1303;24291;-77
2022/10/19 05:47:59;;;;;;;13.40;10.80;;;;;;;11.24;96.97;97250.25;105183;1303;36321;-76
2022/10/19 05:50:30;;;;;;;13.30;11.90;;;;;;;11.25;97.08;97249.61;105170;1303;22463;-76
2022/10/19 05:53:01;;;;;;;13.80;11.50;;;;;;;11.26;96.94;97252.23;105186;1303;22542;-76
2022/10/19 05:55:36;;;;;;;13.30;10.50;;;;;;;11.27;96.77;97241.14;105147;1295;22475;-76
2022/10/19 05:58:07;;;;;;;12.50;10.60;;;;;;;11.26;96.60;97244.90;105208;1303;22529;-76
2022/10/19 06:00:41;;;;;;;11.60;10.40;;;;;;;11.25;96.44;97250.77;105191;1285;22462;-76
2022/10/19 06:03:16;;;;;;;12.70;11.30;;;;;;;11.26;96.45;97248.77;105192;1295;22579;-77
2022/10/19 06:05:47;;;;;;;12.30;11.00;;;;;;;11.27;96.26;97253.19;105122;1303;26556;-77
2022/10/19 06:08:19;;;;;;;12.10;10.70;;;;;;;11.32;96.17;97250.15;105137;1304;22481;-77
2022/10/19 06:10:53;;;;;;;13.40;11.80;;;;;;;11.37;95.92;97253.48;105154;1302;22471;-77
2022/10/19 06:13:24;;;;;;;11.80;10.30;;;;;;;11.42;95.95;97255.45;105109;1306;22471;-77
2022/10/19 06:15:55;;;;;;;12.00;10.20;;;;;;;11.43;95.52;97250.58;105129;1306;22493;-76
2022/10/19 06:18:26;;;;;;;14.50;10.90;;;;;;;11.42;95.19;97257.95;105162;1304;24302;-77
2022/10/19 06:21:03;;;;;;;12.70;10.90;;;;;;;11.42;95.06;97257.05;105144;1292;22473;-77
2022/10/19 06:23:35;;;;;;;11.20;10.00;;;;;;;11.42;95.01;97255.52;105176;1299;22467;-77
2022/10/19 06:26:08;;;;;;;11.60;9.90;;;;;;;11.43;94.90;97255.83;105116;1296;25986;-77
2022/10/19 06:28:41;;;;;;;12.40;11.10;;;;;;;11.42;94.89;97268.00;105238;1282;22469;-76
2022/10/19 06:31:14;;;;;;;13.10;11.70;;;;;;;11.43;94.74;97270.86;105216;1294;22544;-76
2022/10/19 06:33:48;;;;;;;12.70;10.40;;;;;;;11.45;94.61;97265.38;105168;1303;22476;-76
2022/10/19 06:36:21;;;;;;;13.10;10.70;;;;;;;11.44;94.36;97271.33;105131;1303;27928;-76
2022/10/19 06:38:54;;;;;;;11.20;8.90;;;;;;;11.39;93.76;97276.91;105153;1298;22470;-76
2022/10/19 06:41:26;;;;;;;13.80;10.10;;;;;;;11.35;93.33;97278.77;105157;1304;22479;-76
2022/10/19 06:43:57;;;;;;;12.30;8.30;;;;;;;11.26;92.89;97278.93;105141;1306;22480;-76
2022/10/19 06:46:29;;;;;;;13.60;11.00;;;;;;;11.18;92.44;97286.89;105172;1304;23385;-76
2022/10/19 06:49:01;;;;;;;14.00;10.90;;;;;;;11.07;92.10;97286.14;105192;1295;22481;-76
2022/10/19 06:51:33;;;;;;;16.70;12.10;;;;;;;11.01;91.98;97295.69;105186;1303;22609;-76
2022/10/19 06:54:04;;;;;;;14.20;10.10;;;;;;;10.99;92.02;97294.95;105156;1295;22488;-76
2022/10/19 06:56:36;;;;;;;12.90;11.50;;;;;;;10.94;92.04;97305.53;105085;1294;22476;-76
2022/10/19 06:59:07;;;;;;;11.30;9.80;;;;;;;10.96;91.81;97309.41;105180;1298;22475;-76
2022/10/19 07:01:38;;;;;;;12.10;9.10;;;;;;;10.98;91.42;97311.33;105142;1286;22468;-76
2022/10/19 07:04:09;;;;;;;16.40;10.30;;;;;;;11.05;91.22;97319.30;105174;1288;22486;-76
2022/10/19 07:06:40;;;;;;;13.70;9.60;;;;;;;11.11;90.48;97322.13;105147;1296;24196;-76
2022/10/19 07:09:12;;;;;;;15.70;10.40;;;;;;;11.08;89.96;97322.17;105203;1296;22511;-75
2022/10/19 07:11:43;;;;;;;11.20;9.20;;;;;;;11.03;89.87;97328.96;105177;1287;22588;-76
2022/10/19 07:14:14;;;;;;;14.40;9.60;;;;;;;11.13;89.94;97329.45;105186;1304;22600;-76
2022/10/19 07:16:45;;;;;;;13.40;10.70;;;;;;;11.20;89.31;97331.52;105127;1303;26004;-76
2022/10/19 07:19:16;;;;;;;11.10;8.20;;;;;;;11.31;88.65;97338.86;105183;1298;22473;-76
2022/10/19 07:21:50;;;;;;;7.90;6.10;;;;;;;11.45;88.01;97343.22;105159;1293;22539;-76
2022/10/19 07:24:23;;;;;;;7.60;5.90;;;;;;;11.60;86.61;97346.04;105204;1303;22473;-76
2022/10/19 07:26:54;;;;;;;6.70;4.30;;;;;;;12.05;85.23;97343.55;105141;1294;22487;-76
2022/10/19 07:29:25;;;;;;;7.60;4.70;;;;;;;12.83;81.66;97340.67;105165;1287;22693;-76
2022/10/19 07:31:56;;;;;;;6.80;4.60;;;;;;;12.87;78.71;97338.52;105172;1287;23029;-76
2022/10/19 07:34:28;;;;;;;7.60;5.20;;;;;;;12.62;78.44;97343.49;105168;1295;24242;-76
2022/10/19 07:37:01;;;;;;;6.80;4.10;;;;;;;13.23;79.80;97341.16;105113;1283;22480;-76
2022/10/19 07:39:32;;;;;;;7.00;3.90;;;;;;;14.51;75.16;97337.47;105151;1303;22542;-76
2022/10/19 07:42:04;;;;;;;6.20;3.90;;;;;;;14.87;71.47;97340.77;105169;1288;22523;-76
2022/10/19 07:44:35;;;;;;;7.80;3.70;;;;;;;15.05;68.34;97336.35;105197;1297;22494;-76
2022/10/19 07:47:06;;;;;;;8.20;4.60;;;;;;;14.79;64.62;97332.17;105136;1304;22484;-77
2022/10/19 07:49:40;;;;;;;8.00;4.00;;;;;;;15.37;64.75;97340.43;105229;1296;22472;-77
2022/10/19 07:52:11;;;;;;;6.40;3.00;;;;;;;15.64;62.67;97342.16;105295;1294;25336;-77
2022/10/19 07:54:42;;;;;;;7.60;3.20;;;;;;;14.80;60.83;97336.68;105235;1289;22478;-78
2022/10/19 07:57:14;;;;;;;4.60;3.20;;;;;;;13.95;62.51;97345.30;105142;1295;22496;-77
2022/10/19 07:59:45;;;;;;;7.40;3.60;;;;;;;13.53;64.31;97343.54;105162;1291;25241;-77
2022/10/19 08:02:19;;;;;;;6.30;3.20;;;;;;;13.45;65.32;97337.00;105186;1309;22487;-78
2022/10/19 08:04:50;;;;;;;4.80;3.20;;;;;;;13.86;67.98;97331.14;105182;1285;22464;-77
2022/10/19 08:07:21;;;;;;;5.70;3.40;;;;;;;15.39;68.71;97329.15;105126;1295;29825;-77
2022/10/19 08:09:53;;;;;;;8.20;3.90;;;;;;;16.04;64.39;97325.70;105118;1306;22475;-77
2022/10/19 08:12:24;;;;;;;7.70;3.80;;;;;;;15.22;64.51;97321.95;105163;1298;25327;-77
2022/10/19 08:15:05;;;;;;;8.50;3.90;;;;;;;14.68;64.71;97320.95;105163;1294;22464;-78
2022/10/19 08:17:40;;;;;;;6.50;4.00;;;;;;;14.63;65.37;97317.66;105122;1306;22485;-77
2022/10/19 08:20:12;;;;;;;7.90;3.80;;;;;;;14.59;65.06;97317.37;105111;1281;22481;-77
2022/10/19 08:22:44;;;;;;;6.90;3.60;;;;;;;14.19;64.87;97316.75;105130;1306;24314;-78
2022/10/19 08:25:15;;;;;;;6.40;3.70;;;;;;;13.51;65.43;97311.54;105171;1288;22464;-78
2022/10/19 08:27:46;;;;;;;8.90;4.40;;;;;;;12.93;66.20;97309.48;105125;1303;22458;-78
2022/10/19 08:30:17;;;;;;;5.30;3.50;;;;;;;12.57;67.46;97299.36;105191;1304;22465;-77
2022/10/19 08:32:48;;;;;;;11.20;4.20;;;;;;;12.39;67.90;97306.56;105196;1295;25225;-77
2022/10/19 08:35:22;;;;;;;9.70;3.50;;;;;;;12.19;68.43;97304.78;105187;1301;22545;-77
2022/10/19 08:37:53;;;;;;;6.60;3.40;;;;;;;12.05;68.83;97301.68;105084;1292;22675;-76
2022/10/19 08:40:28;;;;;;;5.50;3.70;;;;;;;11.98;69.69;97295.81;105104;1309;25347;-77
2022/10/19 08:43:02;;;;;;;8.10;3.80;;;;;;;11.99;70.08;97297.77;105121;1288;22486;-76
2022/10/19 08:45:41;;;;;;;7.00;4.00;;;;;;;11.98;70.29;97297.41;105091;1303;22508;-76
2022/10/19 08:48:33;;;;;;;8.00;3.80;;;;;;;11.83;70.58;97299.88;105169;1287;25296;-77
2022/10/19 08:51:08;;;;;;;8.10;4.50;;;;;;;11.68;71.21;97312.30;105207;1287;22483;-76
2022/10/19 08:53:50;;;;;;;6.80;3.70;;;;;;;11.57;71.97;97314.98;105162;1304;25355;-76
2022/10/19 08:56:28;;;;;;;9.30;4.90;;;;;;;11.50;72.44;97322.51;105130;1295;22497;-76
2022/10/19 08:59:12;;;;;;;8.00;4.40;;;;;;;11.46;73.28;97320.13;105178;1303;22582;-76
2022/10/19 09:01:50;;;;;;;7.70;4.20;;;;;;;11.51;73.69;97320.86;105170;1304;22466;-76
2022/10/19 09:04:25;;;;;;;7.70;4.60;;;;;;;11.61;73.86;97322.45;105171;1304;22473;-76
2022/10/19 09:07:27;;;;;;;8.80;5.60;;;;;;;11.61;73.70;97327.13;105110;1288;25470;-76
2022/10/19 09:10:02;;;;;;;10.30;4.70;;;;;;;11.62;73.66;97329.15;105106;1307;22468;-76
2022/10/19 09:12:45;;;;;;;6.80;5.10;;;;;;;11.62;74.14;97328.45;105072;1296;22468;-76
2022/10/19 09:15:28;;;;;;;7.60;4.80;;;;;;;11.57;72.81;97327.50;105101;1295;22482;-76
2022/10/19 09:17:59;;;;;;;7.90;4.40;;;;;;;11.46;72.24;97331.02;105018;1299;33471;-76
2022/10/19 09:20:37;;;;;;;10.60;5.40;;;;;;;11.37;72.72;97338.17;105064;1296;22460;-76
2022/10/19 09:23:20;;;;;;;8.20;5.30;;;;;;;11.31;72.97;97341.05;105103;1305;22935;-76
2022/10/19 09:25:52;;;;;;;9.70;5.00;;;;;;;11.42;72.87;97334.77;104968;1299;24764;-76
2022/10/19 09:28:41;;;;;;;7.90;5.00;;;;;;;11.48;71.52;97324.31;105050;1306;22551;-76
2022/10/19 09:31:22;;;;;;;9.20;5.80;;;;;;;11.55;71.84;97328.41;105030;1300;22468;-76
2022/10/19 09:33:54;;;;;;;;;;;;;;;11.58;71.84;97325.55;105030;1294;22465;-76
2022/10/19 09:36:36;;;;;;;8.50;4.90;;;;;;;11.55;70.84;97324.16;104974;1306;22513;-76
2022/10/19 09:39:09;;;;;;;8.10;4.50;;;;;;;11.48;70.09;97322.67;105083;1304;22501;-76
2022/10/19 09:41:47;;;;;;;5.50;2.80;;;;;;;11.36;69.69;97320.86;105044;1306;24529;-76
2022/10/19 09:44:18;;;;;;;8.40;4.50;;;;;;;11.22;70.14;97331.27;105026;1306;22572;-76
2022/10/19 09:46:58;;;;;;;9.80;6.30;;;;;;;11.16;70.24;97332.05;104985;1306;25243;-76
2022/10/19 09:49:42;;;;;;;8.90;6.20;;;;;;;11.15;70.40;97324.16;105077;1303;25332;-76
2022/10/19 09:52:34;;;;;;;9.20;6.00;;;;;;;11.17;70.57;97319.16;105064;1288;25357;-77
2022/10/19 09:55:17;;;;;;;9.30;5.60;;;;;;;11.23;71.19;97319.52;105040;1303;22645;-77
2022/10/19 09:57:50;;;;;;;8.40;5.80;;;;;;;11.27;70.65;97318.06;104959;1295;22482;-76
2022/10/19 10:00:24;;;;;;;8.30;5.00;;;;;;;11.18;69.94;97306.70;105015;1305;22464;-76
2022/10/19 10:02:56;;;;;;;9.90;5.30;;;;;;;11.08;70.05;97313.20;105011;1298;22635;-76
2022/10/19 10:05:33;;;;;;;9.50;5.50;;;;;;;11.03;71.00;97307.27;105035;1297;22514;-76
2022/10/19 10:08:12;;;;;;;8.30;5.70;;;;;;;10.98;71.10;97308.89;105040;1304;26544;-76
2022/10/19 10:10:52;;;;;;;8.90;6.00;;;;;;;10.93;71.63;97309.63;105053;1306;24398;-76
2022/10/19 10:13:28;;;;;;;9.00;5.40;;;;;;;10.89;72.15;97309.84;105054;1299;22493;-76
2022/10/19 10:16:04;;;;;;;10.40;4.20;;;;;;;10.87;72.24;97313.29;105008;1306;22521;-76
2022/10/19 10:18:45;;;;;;;8.80;5.30;;;;;;;10.78;72.04;97315.06;105008;1298;22522;-76
2022/10/19 10:21:23;;;;;;;8.60;5.90;;;;;;;10.68;72.10;97330.20;105067;1306;22545;-76
2022/10/19 10:24:07;;;;;;;17.40;7.40;;;;;;;10.61;72.63;97334.00;105034;1291;23344;-76
2022/10/19 10:26:43;;;;;;;11.50;6.70;;;;;;;10.59;73.02;97334.48;104998;1297;22494;-76
2022/10/19 10:29:23;;;;;;;9.60;7.10;;;;;;;10.57;73.45;97331.02;105026;1298;22546;-77
2022/10/19 10:31:58;;;;;;;10.90;6.70;;;;;;;10.57;73.75;97322.44;105027;1283;22471;-76
2022/10/19 10:34:41;;;;;;;8.80;6.60;;;;;;;10.54;73.74;97319.80;105030;1283;22513;-77
2022/10/19 10:37:20;;;;;;;9.10;4.90;;;;;;;10.69;74.15;97324.85;104970;1306;22890;-76
2022/10/19 10:39:56;;;;;;;8.40;6.30;;;;;;;10.84;73.22;97313.79;105056;1306;22976;-76
2022/10/19 10:42:33;;;;;;;8.50;5.90;;;;;;;10.98;72.28;97316.48;105020;1297;22475;-76
2022/10/19 10:45:15;;;;;;;11.60;5.80;;;;;;;11.02;71.25;97308.11;105072;1297;23847;-76
2022/10/19 10:47:48;;;;;;;7.10;3.90;;;;;;;11.01;70.56;97307.09;104967;1306;25856;-77
2022/10/19 10:50:23;;;;;;;7.70;5.10;;;;;;;11.02;70.53;97306.84;105020;1306;22536;-77
2022/10/19 10:53:02;;;;;;;6.60;5.40;;;;;;;11.07;70.92;97305.83;105126;1304;22478;-77
2022/10/19 10:55:34;;;;;;;8.00;3.80;;;;;;;11.42;70.10;97298.05;105000;1306;34481;-76
2022/10/19 10:58:14;;;;;;;9.80;3.70;;;;;;;11.35;68.19;97283.91;105008;1305;22497;-76
2022/10/19 11:00:47;;;;;;;7.20;4.10;;;;;;;11.16;66.98;97294.58;105018;1283;22543;-76
2022/10/19 11:03:25;;;;;;;6.60;4.40;;;;;;;10.99;67.99;97295.47;105037;1295;22677;-77
2022/10/19 11:05:59;;;;;;;9.00;4.50;;;;;;;10.87;68.73;97304.90;104983;1306;22546;-77
2022/10/19 11:08:34;;;;;;;8.40;4.20;;;;;;;10.81;69.73;97310.49;104968;1291;22480;-77
2022/10/19 11:11:14;;;;;;;8.20;4.70;;;;;;;10.78;70.31;97309.85;105029;1306;25314;-77
2022/10/19 11:13:50;;;;;;;11.70;5.00;;;;;;;10.73;71.06;97324.02;104990;1284;22919;-77
2022/10/19 11:16:24;;;;;;;8.00;3.90;;;;;;;10.70;70.81;97315.09;104960;1305;24301;-76
2022/10/19 11:19:01;;;;;;;4.70;2.60;;;;;;;10.60;70.81;97312.67;105000;1298;22617;-76
2022/10/19 11:21:37;;;;;;;5.90;2.40;;;;;;;10.48;69.63;97312.05;105057;1299;22690;-76
2022/10/19 11:24:17;;;;;;;7.10;2.60;;;;;;;10.37;68.37;97322.73;105036;1297;22603;-76
2022/10/19 11:27:05;;;;;;;5.00;1.90;;;;;;;10.32;68.08;97308.23;105000;1306;22468;-76
2022/10/19 11:29:50;;;;;;;4.70;1.80;;;;;;;10.23;67.81;97315.77;105022;1289;22491;-76
2022/10/19 11:32:32;;;;;;;8.30;2.30;;;;;;;10.19;68.06;97315.77;105063;1304;22523;-76
2022/10/19 11:35:25;;;;;;;2.40;1.90;;;;;;;10.16;68.14;97315.39;105035;1294;22475;-76
2022/10/19 11:38:08;;;;;;;5.40;2.60;;;;;;;10.14;67.77;97307.39;104984;1297;33129;-76
2022/10/19 11:40:44;;;;;;;5.30;2.20;;;;;;;10.19;68.12;97312.48;105022;1298;22539;-76
2022/10/19 11:43:27;;;;;;;5.60;2.30;;;;;;;10.23;68.55;97313.84;105031;1306;22497;-77
2022/10/19 11:46:09;;;;;;;6.10;2.30;;;;;;;10.32;68.78;97308.92;104986;1306;26045;-77
2022/10/19 11:48:51;;;;;;;5.70;1.40;;;;;;;10.43;68.27;97303.34;105100;1301;22488;-76
2022/10/19 11:51:28;;;;;;;4.60;1.90;;;;;;;10.54;67.33;97299.61;105124;1304;22524;-77
2022/10/19 11:54:27;;;;;;;4.90;2.50;;;;;;;10.65;67.11;97307.13;105179;1304;22680;-77
2022/10/19 11:57:02;;;;;;;4.10;2.10;;;;;;;10.81;66.93;97307.10;105015;1288;22481;-77